LBBG

Burgas Airport

Burgas, Bulgaria
TAF LBBG 182300Z 1900/1924 36018KT 7000 SN SCT015 OVC030 TEMPO 1900/1904 3000 SN BKN012 OVC025 TEMPO 1906/1913 36020G30KT 2000 SN DRSN BKN010 OVC025 BECMG 1914/1916 34012KT NSW BKN020 OVC040
Issued Valid From Valid To
Dec-18 @ 23:00 UTC
(an hour ago)
Dec-19 @ 00:00 UTC
(22 minutes ago)
Dec-20 @ 00:00 UTC
(in 24 hours)
Dec-19 @ 00:00 to Dec-19 @ 14:00
TAF LBBG 182300Z 1900/1924 36018KT 7000 SN SCT015 OVC030
Wind Visibility Clouds Conditions
360° at 18 knots 7,001 meters
  • Scattered at 1,500' AGL
  • Overcast at 3,000' AGL
  • Snow
Temporary Dec-19 @ 00:00 to Dec-19 @ 04:00
TEMPO 1900/1904 3000 SN BKN012 OVC025
Visibility Clouds Conditions
2,993 meters
  • Broken at 1,200' AGL
  • Overcast at 2,500' AGL
  • Snow
Temporary Dec-19 @ 06:00 to Dec-19 @ 13:00
TEMPO 1906/1913 36020G30KT 2000 SN DRSN BKN010 OVC025
Wind Visibility Clouds Conditions
360° at 20 knots
 Gusting to 30 knots
1,996 meters
  • Broken at 1,000' AGL
  • Overcast at 2,500' AGL
  • Snow
  • Low drifting
  • Snow
Becoming Dec-19 @ 14:00 to Dec-20 @ 00:00
BECMG 1914/1916 34012KT NSW BKN020 OVC040
Wind Visibility Clouds Conditions
340° at 12 knots 7,001 meters
  • Broken at 2,000' AGL
  • Overcast at 4,000' AGL
TAF LBBG 182300Z 1900/1924 36018KT 7000 SN SCT015 OVC030 TEMPO 1900/1904 3000 SN BKN012 OVC025 TEMPO 1906/1913 36020G30KT 2000 SN DRSN BKN010 OVC025 BECMG 1914/1916 34012KT NSW BKN020 OVC040
Issued Dec-18 @ 23:00 UTC
(an hour ago)
Valid From Dec-19 @ 00:00 UTC
(22 minutes ago)
Valid To Dec-20 @ 00:00 UTC
(in 24 hours)
Dec-19 @ 00:00 - Dec-19 @ 14:00
Wind Visibility
360° at 18 knots 7,001 meters
Clouds
  • Scattered at 1,500' AGL
  • Overcast at 3,000' AGL
Conditions
  • Snow
Temporary Dec-19 @ 00:00 - Dec-19 @ 04:00
Clouds
  • Broken at 1,200' AGL
  • Overcast at 2,500' AGL
Conditions
  • Snow
Temporary Dec-19 @ 06:00 - Dec-19 @ 13:00
Wind Visibility
360° at 20 knots
 Gusting to 30 knots
1,996 meters
Clouds
  • Broken at 1,000' AGL
  • Overcast at 2,500' AGL
Conditions
  • Snow
  • Low drifting
  • Snow
Becoming Dec-19 @ 14:00 - Dec-20 @ 00:00
Wind Visibility
340° at 12 knots 7,001 meters
Clouds
  • Broken at 2,000' AGL
  • Overcast at 4,000' AGL
Conditions